Avalon, California
Current Conditions -  °F | °C
As of 4:51 AM on Sunday 23 Nov 2014 (Local Time) from KAVX Reporting Station
Clear Clear  
Wind Chill: 13°   Ceiling: Unl
Heat Index: 13°   Visibility: 10mi
Dew Point:   Wind: 18mph
Humidity: 75%   Direction: 10°N
Pressure: 30.07"   Gusts: NA
Location:  33.34°N, 118.33°W
Report Text: KAVX 231251Z AUTO 01016KT 10SM CLR 13/09 A3007 RMK AO2 SLP175 T01330089
Loading
Personal Weather Stations






























Interactive Weather Map New forecast layout! Learn more

10-Day Weather Forecast

Advertisements
Track Severe Weather on mobile